sensor_id;sensor_type;location;lat;lon;timestamp;pressure;altitude;pressure_sealevel;temperature
24714;BMP280;12820;51.580;5.010;2024-02-23T00:00:25;98867.66;;;7.72
24714;BMP280;12820;51.580;5.010;2024-02-23T00:05:28;98868.47;;;7.73
24714;BMP280;12820;51.580;5.010;2024-02-23T00:10:30;98884.25;;;7.73
24714;BMP280;12820;51.580;5.010;2024-02-23T00:15:32;98874.19;;;7.76
24714;BMP280;12820;51.580;5.010;2024-02-23T00:20:34;98895.81;;;7.77
24714;BMP280;12820;51.580;5.010;2024-02-23T00:25:36;98896.75;;;7.73
24714;BMP280;12820;51.580;5.010;2024-02-23T00:30:38;98906.81;;;7.72
24714;BMP280;12820;51.580;5.010;2024-02-23T00:35:41;98913.47;;;7.73
24714;BMP280;12820;51.580;5.010;2024-02-23T00:40:43;98918.53;;;7.70
24714;BMP280;12820;51.580;5.010;2024-02-23T00:45:46;98918.66;;;7.67
24714;BMP280;12820;51.580;5.010;2024-02-23T00:50:48;98934.50;;;7.66
24714;BMP280;12820;51.580;5.010;2024-02-23T00:55:50;98931.22;;;7.64
24714;BMP280;12820;51.580;5.010;2024-02-23T01:00:52;98947.13;;;7.63
24714;BMP280;12820;51.580;5.010;2024-02-23T01:05:55;98947.38;;;7.54
24714;BMP280;12820;51.580;5.010;2024-02-23T01:10:57;98961.53;;;7.55
24714;BMP280;12820;51.580;5.010;2024-02-23T01:15:59;98958.31;;;7.52
24714;BMP280;12820;51.580;5.010;2024-02-23T01:21:01;98958.34;;;7.50
24714;BMP280;12820;51.580;5.010;2024-02-23T01:26:03;98966.84;;;7.45
24714;BMP280;12820;51.580;5.010;2024-02-23T01:31:09;98961.06;;;7.45
24714;BMP280;12820;51.580;5.010;2024-02-23T01:36:15;98958.63;;;7.42
24714;BMP280;12820;51.580;5.010;2024-02-23T01:41:17;98976.13;;;7.42
24714;BMP280;12820;51.580;5.010;2024-02-23T01:46:19;98967.13;;;7.36
24714;BMP280;12820;51.580;5.010;2024-02-23T01:51:23;98980.44;;;7.37
24714;BMP280;12820;51.580;5.010;2024-02-23T01:56:25;98964.59;;;7.38
24714;BMP280;12820;51.580;5.010;2024-02-23T02:01:27;98967.94;;;7.37
24714;BMP280;12820;51.580;5.010;2024-02-23T02:06:30;98979.63;;;7.36
24714;BMP280;12820;51.580;5.010;2024-02-23T02:11:32;98975.56;;;7.34
24714;BMP280;12820;51.580;5.010;2024-02-23T02:16:35;98983.78;;;7.36
24714;BMP280;12820;51.580;5.010;2024-02-23T02:21:42;98982.25;;;7.32
24714;BMP280;12820;51.580;5.010;2024-02-23T02:26:53;98995.56;;;7.32
24714;BMP280;12820;51.580;5.010;2024-02-23T02:31:55;98988.94;;;7.31
24714;BMP280;12820;51.580;5.010;2024-02-23T02:36:58;98994.84;;;7.29
24714;BMP280;12820;51.580;5.010;2024-02-23T02:42:00;98994.03;;;7.28
24714;BMP280;12820;51.580;5.010;2024-02-23T02:47:02;98999.84;;;7.29
24714;BMP280;12820;51.580;5.010;2024-02-23T02:52:05;99000.72;;;7.28
24714;BMP280;12820;51.580;5.010;2024-02-23T02:57:07;99014.84;;;7.29
24714;BMP280;12820;51.580;5.010;2024-02-23T03:02:11;99010.81;;;7.25
24714;BMP280;12820;51.580;5.010;2024-02-23T03:07:14;99015.69;;;7.28
24714;BMP280;12820;51.580;5.010;2024-02-23T03:12:16;99015.72;;;7.27
24714;BMP280;12820;51.580;5.010;2024-02-23T03:17:19;99019.19;;;7.23
24714;BMP280;12820;51.580;5.010;2024-02-23T03:22:21;99013.44;;;7.21
24714;BMP280;12820;51.580;5.010;2024-02-23T03:27:28;99029.19;;;7.23
24714;BMP280;12820;51.580;5.010;2024-02-23T03:32:31;99023.34;;;7.22
24714;BMP280;12820;51.580;5.010;2024-02-23T03:37:38;99014.16;;;7.24
24714;BMP280;12820;51.580;5.010;2024-02-23T03:42:40;99019.13;;;7.26
24714;BMP280;12820;51.580;5.010;2024-02-23T03:47:42;99013.97;;;7.30
24714;BMP280;12820;51.580;5.010;2024-02-23T03:52:45;99016.28;;;7.36
24714;BMP280;12820;51.580;5.010;2024-02-23T03:57:47;99018.63;;;7.40
24714;BMP280;12820;51.580;5.010;2024-02-23T04:02:50;99021.94;;;7.41
24714;BMP280;12820;51.580;5.010;2024-02-23T04:07:53;99028.69;;;7.39
24714;BMP280;12820;51.580;5.010;2024-02-23T04:12:55;99040.38;;;7.38
24714;BMP280;12820;51.580;5.010;2024-02-23T04:17:57;99039.66;;;7.35
24714;BMP280;12820;51.580;5.010;2024-02-23T04:22:59;99035.44;;;7.35
24714;BMP280;12820;51.580;5.010;2024-02-23T04:28:01;99027.91;;;7.37
24714;BMP280;12820;51.580;5.010;2024-02-23T04:33:04;99027.06;;;7.38
24714;BMP280;12820;51.580;5.010;2024-02-23T04:38:06;99026.09;;;7.42
24714;BMP280;12820;51.580;5.010;2024-02-23T04:43:08;99021.03;;;7.45
24714;BMP280;12820;51.580;5.010;2024-02-23T04:48:10;99006.75;;;7.48
24714;BMP280;12820;51.580;5.010;2024-02-23T04:53:13;99020.75;;;7.53
24714;BMP280;12820;51.580;5.010;2024-02-23T04:58:18;99025.53;;;7.59
24714;BMP280;12820;51.580;5.010;2024-02-23T05:03:20;99022.00;;;7.66
24714;BMP280;12820;51.580;5.010;2024-02-23T05:08:22;99020.19;;;7.71
24714;BMP280;12820;51.580;5.010;2024-02-23T05:13:26;99030.00;;;7.77
24714;BMP280;12820;51.580;5.010;2024-02-23T05:18:28;99030.59;;;7.83
24714;BMP280;12820;51.580;5.010;2024-02-23T05:23:30;99028.78;;;7.88
24714;BMP280;12820;51.580;5.010;2024-02-23T05:28:32;99026.13;;;7.92
24714;BMP280;12820;51.580;5.010;2024-02-23T05:33:34;99016.88;;;7.96
24714;BMP280;12820;51.580;5.010;2024-02-23T05:38:37;99011.78;;;7.97
24714;BMP280;12820;51.580;5.010;2024-02-23T05:43:39;99004.28;;;7.98
24714;BMP280;12820;51.580;5.010;2024-02-23T05:48:41;99016.63;;;8.03
24714;BMP280;12820;51.580;5.010;2024-02-23T05:53:44;99011.56;;;8.06
24714;BMP280;12820;51.580;5.010;2024-02-23T05:58:46;99021.41;;;8.10
24714;BMP280;12820;51.580;5.010;2024-02-23T06:03:48;99013.84;;;8.12
24714;BMP280;12820;51.580;5.010;2024-02-23T06:08:50;99012.97;;;8.13
24714;BMP280;12820;51.580;5.010;2024-02-23T06:13:52;99027.00;;;8.16
24714;BMP280;12820;51.580;5.010;2024-02-23T06:18:55;99004.56;;;8.15
24714;BMP280;12820;51.580;5.010;2024-02-23T06:23:57;99022.81;;;8.17
24714;BMP280;12820;51.580;5.010;2024-02-23T06:28:59;99018.66;;;8.17
24714;BMP280;12820;51.580;5.010;2024-02-23T06:34:02;99021.00;;;8.22
24714;BMP280;12820;51.580;5.010;2024-02-23T06:39:05;99022.69;;;8.21
24714;BMP280;12820;51.580;5.010;2024-02-23T06:44:07;99011.81;;;8.22
24714;BMP280;12820;51.580;5.010;2024-02-23T06:49:10;99015.00;;;8.26
24714;BMP280;12820;51.580;5.010;2024-02-23T06:54:12;99018.25;;;8.29
24714;BMP280;12820;51.580;5.010;2024-02-23T06:59:14;98996.47;;;8.31
24714;BMP280;12820;51.580;5.010;2024-02-23T07:04:17;98997.25;;;8.33
24714;BMP280;12820;51.580;5.010;2024-02-23T07:09:19;99002.94;;;8.38
24714;BMP280;12820;51.580;5.010;2024-02-23T07:14:21;99014.34;;;8.45
24714;BMP280;12820;51.580;5.010;2024-02-23T07:19:24;99015.78;;;8.52
24714;BMP280;12820;51.580;5.010;2024-02-23T07:24:26;99017.13;;;8.61
24714;BMP280;12820;51.580;5.010;2024-02-23T07:29:28;99026.94;;;8.67
24714;BMP280;12820;51.580;5.010;2024-02-23T07:34:31;99019.91;;;8.76
24714;BMP280;12820;51.580;5.010;2024-02-23T07:39:42;99015.75;;;8.75
24714;BMP280;12820;51.580;5.010;2024-02-23T07:44:51;99004.59;;;8.84
24714;BMP280;12820;51.580;5.010;2024-02-23T07:49:53;98982.66;;;8.90
24714;BMP280;12820;51.580;5.010;2024-02-23T07:54:57;98976.44;;;9.00
24714;BMP280;12820;51.580;5.010;2024-02-23T08:00:04;98968.66;;;9.07
24714;BMP280;12820;51.580;5.010;2024-02-23T08:05:12;98969.94;;;9.17
24714;BMP280;12820;51.580;5.010;2024-02-23T08:10:15;98973.84;;;9.23
24714;BMP280;12820;51.580;5.010;2024-02-23T08:15:17;98965.84;;;9.35
24714;BMP280;12820;51.580;5.010;2024-02-23T08:20:19;98963.00;;;9.44
24714;BMP280;12820;51.580;5.010;2024-02-23T08:25:21;98959.38;;;9.51
24714;BMP280;12820;51.580;5.010;2024-02-23T08:30:23;98961.84;;;9.52
24714;BMP280;12820;51.580;5.010;2024-02-23T08:35:26;98956.88;;;9.51
24714;BMP280;12820;51.580;5.010;2024-02-23T08:40:28;98953.50;;;9.52
24714;BMP280;12820;51.580;5.010;2024-02-23T08:45:30;98953.38;;;9.55
24714;BMP280;12820;51.580;5.010;2024-02-23T08:50:32;98966.44;;;9.62
24714;BMP280;12820;51.580;5.010;2024-02-23T08:55:36;98965.13;;;9.74
24714;BMP280;12820;51.580;5.010;2024-02-23T09:00:38;98975.88;;;9.77
24714;BMP280;12820;51.580;5.010;2024-02-23T09:05:40;98974.13;;;9.79
24714;BMP280;12820;51.580;5.010;2024-02-23T09:10:43;98985.91;;;9.77
24714;BMP280;12820;51.580;5.010;2024-02-23T09:15:45;99002.69;;;9.75
24714;BMP280;12820;51.580;5.010;2024-02-23T09:20:48;98992.41;;;9.61
24714;BMP280;12820;51.580;5.010;2024-02-23T09:25:53;98993.66;;;9.50
24714;BMP280;12820;51.580;5.010;2024-02-23T09:30:55;98997.13;;;9.48
24714;BMP280;12820;51.580;5.010;2024-02-23T09:35:59;99004.53;;;9.51
24714;BMP280;12820;51.580;5.010;2024-02-23T09:41:03;99009.88;;;9.63
24714;BMP280;12820;51.580;5.010;2024-02-23T09:46:05;99007.88;;;9.92
24714;BMP280;12820;51.580;5.010;2024-02-23T09:51:10;98999.66;;;10.29
24714;BMP280;12820;51.580;5.010;2024-02-23T09:56:13;99001.25;;;10.49
24714;BMP280;12820;51.580;5.010;2024-02-23T10:01:26;99006.16;;;10.52
24714;BMP280;12820;51.580;5.010;2024-02-23T10:06:29;99014.13;;;10.61
24714;BMP280;12820;51.580;5.010;2024-02-23T10:11:31;99015.81;;;10.61
24714;BMP280;12820;51.580;5.010;2024-02-23T10:16:33;99018.56;;;10.55
24714;BMP280;12820;51.580;5.010;2024-02-23T10:21:36;99037.78;;;10.56
24714;BMP280;12820;51.580;5.010;2024-02-23T10:26:38;99046.06;;;10.58
24714;BMP280;12820;51.580;5.010;2024-02-23T10:31:41;99043.81;;;10.71
24714;BMP280;12820;51.580;5.010;2024-02-23T10:36:45;99048.88;;;10.89
24714;BMP280;12820;51.580;5.010;2024-02-23T10:42:02;99062.47;;;11.03
24714;BMP280;12820;51.580;5.010;2024-02-23T10:47:06;99056.91;;;11.15
24714;BMP280;12820;51.580;5.010;2024-02-23T10:52:09;99051.03;;;11.34
24714;BMP280;12820;51.580;5.010;2024-02-23T10:57:14;99050.25;;;11.68
24714;BMP280;12820;51.580;5.010;2024-02-23T11:02:20;99058.13;;;11.79
24714;BMP280;12820;51.580;5.010;2024-02-23T11:07:24;99047.63;;;11.88
24714;BMP280;12820;51.580;5.010;2024-02-23T11:12:30;99034.56;;;12.31
24714;BMP280;12820;51.580;5.010;2024-02-23T11:17:42;99042.09;;;12.47
24714;BMP280;12820;51.580;5.010;2024-02-23T11:23:13;99051.75;;;12.73
24714;BMP280;12820;51.580;5.010;2024-02-23T11:28:32;99057.16;;;13.14
24714;BMP280;12820;51.580;5.010;2024-02-23T11:33:53;99055.88;;;13.22
24714;BMP280;12820;51.580;5.010;2024-02-23T11:38:59;99056.19;;;14.06
24714;BMP280;12820;51.580;5.010;2024-02-23T11:44:03;99051.06;;;14.37
24714;BMP280;12820;51.580;5.010;2024-02-23T11:49:09;99052.91;;;14.20
24714;BMP280;12820;51.580;5.010;2024-02-23T11:54:12;99077.38;;;13.74
24714;BMP280;12820;51.580;5.010;2024-02-23T11:59:21;99061.06;;;13.34
24714;BMP280;12820;51.580;5.010;2024-02-23T12:04:27;99062.97;;;12.99
24714;BMP280;12820;51.580;5.010;2024-02-23T12:09:31;99071.31;;;12.68
24714;BMP280;12820;51.580;5.010;2024-02-23T12:14:35;99069.84;;;12.64
24714;BMP280;12820;51.580;5.010;2024-02-23T12:19:41;99073.25;;;12.79
24714;BMP280;12820;51.580;5.010;2024-02-23T12:24:51;99082.88;;;12.72
24714;BMP280;12820;51.580;5.010;2024-02-23T12:29:54;99095.56;;;12.70
24714;BMP280;12820;51.580;5.010;2024-02-23T12:34:56;99096.28;;;12.72
24714;BMP280;12820;51.580;5.010;2024-02-23T12:39:59;99092.94;;;12.88
24714;BMP280;12820;51.580;5.010;2024-02-23T12:45:01;99092.22;;;13.18
24714;BMP280;12820;51.580;5.010;2024-02-23T12:50:04;99109.41;;;13.27
24714;BMP280;12820;51.580;5.010;2024-02-23T12:55:08;99096.50;;;13.63
24714;BMP280;12820;51.580;5.010;2024-02-23T13:00:11;99086.16;;;14.27
24714;BMP280;12820;51.580;5.010;2024-02-23T13:05:13;99084.97;;;14.75
24714;BMP280;12820;51.580;5.010;2024-02-23T13:10:15;99087.66;;;14.58
24714;BMP280;12820;51.580;5.010;2024-02-23T13:15:20;99087.75;;;14.99
24714;BMP280;12820;51.580;5.010;2024-02-23T13:20:23;99093.66;;;14.71
24714;BMP280;12820;51.580;5.010;2024-02-23T13:25:25;99094.44;;;14.29
24714;BMP280;12820;51.580;5.010;2024-02-23T13:30:27;99091.63;;;14.05
24714;BMP280;12820;51.580;5.010;2024-02-23T13:35:30;99087.94;;;14.25
24714;BMP280;12820;51.580;5.010;2024-02-23T13:40:32;99088.13;;;14.93
24714;BMP280;12820;51.580;5.010;2024-02-23T13:45:48;99092.03;;;16.56
24714;BMP280;12820;51.580;5.010;2024-02-23T13:50:51;99075.69;;;17.45
24714;BMP280;12820;51.580;5.010;2024-02-23T13:55:53;99076.59;;;16.97
24714;BMP280;12820;51.580;5.010;2024-02-23T14:00:56;99084.75;;;16.26
24714;BMP280;12820;51.580;5.010;2024-02-23T14:05:58;99092.72;;;15.55
24714;BMP280;12820;51.580;5.010;2024-02-23T14:11:01;99107.56;;;15.07
24714;BMP280;12820;51.580;5.010;2024-02-23T14:16:06;99110.97;;;14.63
24714;BMP280;12820;51.580;5.010;2024-02-23T14:21:08;99104.28;;;15.05
24714;BMP280;12820;51.580;5.010;2024-02-23T14:26:12;99092.56;;;17.46
24714;BMP280;12820;51.580;5.010;2024-02-23T14:31:15;99086.41;;;18.87
24714;BMP280;12820;51.580;5.010;2024-02-23T14:36:18;99081.63;;;20.82
24714;BMP280;12820;51.580;5.010;2024-02-23T14:41:20;99091.94;;;18.82
24714;BMP280;12820;51.580;5.010;2024-02-23T14:46:22;99070.34;;;22.20
24714;BMP280;12820;51.580;5.010;2024-02-23T14:51:24;99079.03;;;23.81
24714;BMP280;12820;51.580;5.010;2024-02-23T14:56:27;99075.69;;;24.82
24714;BMP280;12820;51.580;5.010;2024-02-23T15:01:29;99081.47;;;23.47
24714;BMP280;12820;51.580;5.010;2024-02-23T15:06:36;99084.84;;;20.84
24714;BMP280;12820;51.580;5.010;2024-02-23T15:11:39;99088.06;;;19.21
24714;BMP280;12820;51.580;5.010;2024-02-23T15:16:42;99091.06;;;18.14
24714;BMP280;12820;51.580;5.010;2024-02-23T15:21:45;99094.72;;;17.28
24714;BMP280;12820;51.580;5.010;2024-02-23T15:26:47;99100.06;;;16.63
24714;BMP280;12820;51.580;5.010;2024-02-23T15:31:49;99099.31;;;16.11
24714;BMP280;12820;51.580;5.010;2024-02-23T15:36:51;99103.16;;;15.77
24714;BMP280;12820;51.580;5.010;2024-02-23T15:41:54;99103.31;;;15.48
24714;BMP280;12820;51.580;5.010;2024-02-23T15:46:56;99110.09;;;15.34
24714;BMP280;12820;51.580;5.010;2024-02-23T15:51:59;99108.09;;;14.98
24714;BMP280;12820;51.580;5.010;2024-02-23T15:57:03;99115.22;;;14.63
24714;BMP280;12820;51.580;5.010;2024-02-23T16:02:07;99099.34;;;14.32
24714;BMP280;12820;51.580;5.010;2024-02-23T16:07:11;99101.66;;;14.06
24714;BMP280;12820;51.580;5.010;2024-02-23T16:12:13;99104.81;;;13.80
24714;BMP280;12820;51.580;5.010;2024-02-23T16:17:15;99111.25;;;13.55
24714;BMP280;12820;51.580;5.010;2024-02-23T16:22:18;99114.28;;;13.30
24714;BMP280;12820;51.580;5.010;2024-02-23T16:27:20;99126.22;;;13.11
24714;BMP280;12820;51.580;5.010;2024-02-23T16:32:22;99122.31;;;12.89
24714;BMP280;12820;51.580;5.010;2024-02-23T16:37:26;99129.16;;;12.71
24714;BMP280;12820;51.580;5.010;2024-02-23T16:42:29;99144.97;;;12.56
24714;BMP280;12820;51.580;5.010;2024-02-23T16:47:31;99147.53;;;12.38
24714;BMP280;12820;51.580;5.010;2024-02-23T16:52:33;99141.72;;;12.20
24714;BMP280;12820;51.580;5.010;2024-02-23T16:57:36;99158.66;;;12.00
24714;BMP280;12820;51.580;5.010;2024-02-23T17:02:38;99194.69;;;11.82
24714;BMP280;12820;51.580;5.010;2024-02-23T17:07:41;99189.84;;;11.60
24714;BMP280;12820;51.580;5.010;2024-02-23T17:12:43;99200.84;;;11.39
24714;BMP280;12820;51.580;5.010;2024-02-23T17:17:51;99196.56;;;11.22
24714;BMP280;12820;51.580;5.010;2024-02-23T17:22:54;99204.69;;;11.09
24714;BMP280;12820;51.580;5.010;2024-02-23T17:27:59;99211.16;;;10.95
24714;BMP280;12820;51.580;5.010;2024-02-23T17:33:01;99230.84;;;10.84
24714;BMP280;12820;51.580;5.010;2024-02-23T17:38:03;99236.44;;;10.71
24714;BMP280;12820;51.580;5.010;2024-02-23T17:43:05;99211.72;;;10.61
24714;BMP280;12820;51.580;5.010;2024-02-23T17:48:08;99218.84;;;10.50
24714;BMP280;12820;51.580;5.010;2024-02-23T17:53:11;99222.63;;;10.39
24714;BMP280;12820;51.580;5.010;2024-02-23T17:58:13;99226.44;;;10.28
24714;BMP280;12820;51.580;5.010;2024-02-23T18:03:21;99239.53;;;10.14
24714;BMP280;12820;51.580;5.010;2024-02-23T18:08:24;99223.22;;;10.03
24714;BMP280;12820;51.580;5.010;2024-02-23T18:13:26;99214.38;;;9.94
24714;BMP280;12820;51.580;5.010;2024-02-23T18:18:28;99220.47;;;9.87
24714;BMP280;12820;51.580;5.010;2024-02-23T18:23:31;99222.34;;;9.82
24714;BMP280;12820;51.580;5.010;2024-02-23T18:28:34;99233.28;;;9.81
24714;BMP280;12820;51.580;5.010;2024-02-23T18:33:36;99226.69;;;9.77
24714;BMP280;12820;51.580;5.010;2024-02-23T18:38:42;99227.59;;;9.75
24714;BMP280;12820;51.580;5.010;2024-02-23T18:43:44;99226.78;;;9.74
24714;BMP280;12820;51.580;5.010;2024-02-23T18:48:49;99220.94;;;9.74
24714;BMP280;12820;51.580;5.010;2024-02-23T18:53:51;99223.53;;;9.72
24714;BMP280;12820;51.580;5.010;2024-02-23T18:58:53;99232.69;;;9.73
24714;BMP280;12820;51.580;5.010;2024-02-23T19:03:56;99240.09;;;9.76
24714;BMP280;12820;51.580;5.010;2024-02-23T19:09:00;99226.03;;;9.72
24714;BMP280;12820;51.580;5.010;2024-02-23T19:14:06;99229.34;;;9.73
24714;BMP280;12820;51.580;5.010;2024-02-23T19:19:09;99228.59;;;9.71
24714;BMP280;12820;51.580;5.010;2024-02-23T19:24:11;99237.84;;;9.69
24714;BMP280;12820;51.580;5.010;2024-02-23T19:29:13;99239.81;;;9.61
24714;BMP280;12820;51.580;5.010;2024-02-23T19:34:16;99237.47;;;9.57
24714;BMP280;12820;51.580;5.010;2024-02-23T19:39:18;99244.22;;;9.55
24714;BMP280;12820;51.580;5.010;2024-02-23T19:44:20;99256.00;;;9.53
24714;BMP280;12820;51.580;5.010;2024-02-23T19:49:22;99273.56;;;9.53
24714;BMP280;12820;51.580;5.010;2024-02-23T19:54:24;99269.41;;;9.52
24714;BMP280;12820;51.580;5.010;2024-02-23T19:59:26;99268.44;;;9.56
24714;BMP280;12820;51.580;5.010;2024-02-23T20:04:29;99276.81;;;9.55
24714;BMP280;12820;51.580;5.010;2024-02-23T20:09:31;99271.75;;;9.56
24714;BMP280;12820;51.580;5.010;2024-02-23T20:14:33;99282.59;;;9.57
24714;BMP280;12820;51.580;5.010;2024-02-23T20:19:36;99308.50;;;9.57
24714;BMP280;12820;51.580;5.010;2024-02-23T20:24:38;99354.47;;;9.58
24714;BMP280;12820;51.580;5.010;2024-02-23T20:29:44;99343.19;;;9.45
24714;BMP280;12820;51.580;5.010;2024-02-23T20:34:46;99336.94;;;9.32
24714;BMP280;12820;51.580;5.010;2024-02-23T20:39:48;99338.13;;;9.21
24714;BMP280;12820;51.580;5.010;2024-02-23T20:44:50;99318.31;;;9.15
24714;BMP280;12820;51.580;5.010;2024-02-23T20:49:52;99325.22;;;9.07
24714;BMP280;12820;51.580;5.010;2024-02-23T20:54:55;99333.00;;;9.00
24714;BMP280;12820;51.580;5.010;2024-02-23T20:59:57;99339.91;;;8.92
24714;BMP280;12820;51.580;5.010;2024-02-23T21:04:59;99344.34;;;8.85
24714;BMP280;12820;51.580;5.010;2024-02-23T21:10:02;99343.75;;;8.77
24714;BMP280;12820;51.580;5.010;2024-02-23T21:15:05;99338.16;;;8.69
24714;BMP280;12820;51.580;5.010;2024-02-23T21:20:07;99338.28;;;8.65
24714;BMP280;12820;51.580;5.010;2024-02-23T21:25:10;99338.38;;;8.62
24714;BMP280;12820;51.580;5.010;2024-02-23T21:30:12;99335.06;;;8.61
24714;BMP280;12820;51.580;5.010;2024-02-23T21:35:14;99320.91;;;8.60
24714;BMP280;12820;51.580;5.010;2024-02-23T21:40:19;99332.56;;;8.61
24714;BMP280;12820;51.580;5.010;2024-02-23T21:45:23;99323.31;;;8.63
24714;BMP280;12820;51.580;5.010;2024-02-23T21:50:25;99333.38;;;8.62
24714;BMP280;12820;51.580;5.010;2024-02-23T21:55:27;99337.56;;;8.61
24714;BMP280;12820;51.580;5.010;2024-02-23T22:00:29;99341.75;;;8.61
24714;BMP280;12820;51.580;5.010;2024-02-23T22:05:32;99356.75;;;8.62
24714;BMP280;12820;51.580;5.010;2024-02-23T22:10:34;99353.34;;;8.63
24714;BMP280;12820;51.580;5.010;2024-02-23T22:15:37;99350.09;;;8.61
24714;BMP280;12820;51.580;5.010;2024-02-23T22:20:39;99351.03;;;8.57
24714;BMP280;12820;51.580;5.010;2024-02-23T22:25:42;99352.00;;;8.53
24714;BMP280;12820;51.580;5.010;2024-02-23T22:30:58;99363.00;;;8.48
24714;BMP280;12820;51.580;5.010;2024-02-23T22:36:00;99354.94;;;8.39
24714;BMP280;12820;51.580;5.010;2024-02-23T22:41:03;99352.63;;;8.32
24714;BMP280;12820;51.580;5.010;2024-02-23T22:46:05;99363.63;;;8.26
24714;BMP280;12820;51.580;5.010;2024-02-23T22:51:07;99346.47;;;8.15
24714;BMP280;12820;51.580;5.010;2024-02-23T22:56:10;99355.00;;;8.08
24714;BMP280;12820;51.580;5.010;2024-02-23T23:01:12;99356.03;;;8.01
24714;BMP280;12820;51.580;5.010;2024-02-23T23:06:14;99359.56;;;7.93
24714;BMP280;12820;51.580;5.010;2024-02-23T23:11:28;99371.41;;;7.86
24714;BMP280;12820;51.580;5.010;2024-02-23T23:16:31;99384.88;;;7.82
24714;BMP280;12820;51.580;5.010;2024-02-23T23:21:33;99379.19;;;7.76
24714;BMP280;12820;51.580;5.010;2024-02-23T23:26:35;99381.00;;;7.70
24714;BMP280;12820;51.580;5.010;2024-02-23T23:31:38;99386.09;;;7.67
24714;BMP280;12820;51.580;5.010;2024-02-23T23:36:40;99394.44;;;7.66
24714;BMP280;12820;51.580;5.010;2024-02-23T23:41:42;99392.16;;;7.59
24714;BMP280;12820;51.580;5.010;2024-02-23T23:46:46;99397.25;;;7.54
24714;BMP280;12820;51.580;5.010;2024-02-23T23:51:49;99398.19;;;7.50
24714;BMP280;12820;51.580;5.010;2024-02-23T23:57:04;99397.41;;;7.48
